Cuivre River (Missouri), Troy (05514500)

StateMissouriLatestPoor (86 cfs)
RiverCuivre RiverRatingObservedEstimated
Updated2024-06-14 21:30 (48 minutes ago)Flood - The river is flooding. Obstacles can be treacherous or deadly. The river should be avoided at this stage for casual trips and definitely for the inexperienced. Trips should be attempted only with protective gear and equipment.Flood(none)2678
Discharge86 cfs (median: 170 cfs)High - The river is high and potentially dangerous, especially for the young and / or inexperienced. Normal stream obstacles are sometimes difficult to navigate. Extended distances can be attempted, but canoe travel may not be advisable.High(none)708
Height5.9 feetGood - Conditions are ideal for a canoe or kayak. Boats typically will drag on fewer than one-quarter of riffles, if at all, and portages are unnecessary or rare. Normal float lengths can be attempted without a problem.Good(none)214
TrendSteady (falling over 24 hours)Low - River is low but can still be floated. Some riffles are okay but most come with significant dragging and might need a portage. Float lengths should be reduced to accommodate low flow, dragging, and portages.Low(none)130
USGSExternal icon USGS Site (External icon Duck Duck Go Maps)Poor - River is too low to float comfortably. Most or all riffles will drag or must be portaged and some obstacles (such as slick shelf rock) cause undue problems. Avoid the river at this stage for casual paddling trips.Poor(none)33

Trending Data

Plot Image

Trips for Cuivre River (Missouri), Troy (05514500)

DateStartEndDistanceConditionDischargeHeightFishingDetails

A total of 0 rows are displayed.

Condition Descriptions

Fishing Conditions

Fish Species

Notes

Classic Trip List

The classic River Trips application is still available for use. It is updated with the new system using a data retrofit. It is no longer maintained. The original River Trips application is no longer updated (as of 1 Dec 2016) but can be checked for errors or for the condition of the data before it was converted to the new system.

Gauge Data Table

ObservationHeightDischargeMaximum
Discharge
Minimum
Discharge
Mean
Discharge
P05P10P20P25P50
(Median)
P75P80P90P95
2024-06-14 21:30 5.90 86 20900 (1970) 13 (1925) 907 16 24 38 44 170 488 707 2300 4840
2024-06-14 21:00 5.90 86 20900 (1970) 13 (1925) 907 16 24 38 44 170 488 707 2300 4840
2024-06-14 20:30 5.90 86 20900 (1970) 13 (1925) 907 16 24 38 44 170 488 707 2300 4840
2024-06-14 20:00 5.90 86 20900 (1970) 13 (1925) 907 16 24 38 44 170 488 707 2300 4840
2024-06-14 19:30 5.91 88 20900 (1970) 13 (1925) 907 16 24 38 44 170 488 707 2300 4840
2024-06-14 19:00 5.91 88 20900 (1970) 13 (1925) 907 16 24 38 44 170 488 707 2300 4840
2024-06-14 18:30 5.91 88 20900 (1970) 13 (1925) 907 16 24 38 44 170 488 707 2300 4840
2024-06-14 18:00 5.92 90 20900 (1970) 13 (1925) 907 16 24 38 44 170 488 707 2300 4840
2024-06-14 17:30 5.92 90 20900 (1970) 13 (1925) 907 16 24 38 44 170 488 707 2300 4840
2024-06-14 17:00 5.92 90 20900 (1970) 13 (1925) 907 16 24 38 44 170 488 707 2300 4840
2024-06-14 16:30 90 20900 (1970) 13 (1925) 907 16 24 38 44 170 488 707 2300 4840
2024-06-14 16:00 5.93 92 20900 (1970) 13 (1925) 907 16 24 38 44 170 488 707 2300 4840
2024-06-14 15:30 5.93 92 20900 (1970) 13 (1925) 907 16 24 38 44 170 488 707 2300 4840
2024-06-14 15:00 5.93 92 20900 (1970) 13 (1925) 907 16 24 38 44 170 488 707 2300 4840
2024-06-14 14:30 5.93 92 20900 (1970) 13 (1925) 907 16 24 38 44 170 488 707 2300 4840
2024-06-14 14:00 5.93 92 20900 (1970) 13 (1925) 907 16 24 38 44 170 488 707 2300 4840
2024-06-14 13:30 5.88 83 20900 (1970) 13 (1925) 907 16 24 38 44 170 488 707 2300 4840
2024-06-14 13:00 5.93 92 20900 (1970) 13 (1925) 907 16 24 38 44 170 488 707 2300 4840
2024-06-14 12:30 5.94 94 20900 (1970) 13 (1925) 907 16 24 38 44 170 488 707 2300 4840
2024-06-14 12:00 5.94 94 20900 (1970) 13 (1925) 907 16 24 38 44 170 488 707 2300 4840
2024-06-14 11:30 5.94 94 20900 (1970) 13 (1925) 907 16 24 38 44 170 488 707 2300 4840
2024-06-14 11:00 5.94 94 20900 (1970) 13 (1925) 907 16 24 38 44 170 488 707 2300 4840
2024-06-14 10:30 5.94 94 20900 (1970) 13 (1925) 907 16 24 38 44 170 488 707 2300 4840
2024-06-14 10:00 5.94 94 20900 (1970) 13 (1925) 907 16 24 38 44 170 488 707 2300 4840
2024-06-14 09:30 5.94 94 20900 (1970) 13 (1925) 907 16 24 38 44 170 488 707 2300 4840
2024-06-14 09:00 5.94 94 20900 (1970) 13 (1925) 907 16 24 38 44 170 488 707 2300 4840
2024-06-14 08:30 5.94 94 20900 (1970) 13 (1925) 907 16 24 38 44 170 488 707 2300 4840
2024-06-14 08:00 5.94 94 20900 (1970) 13 (1925) 907 16 24 38 44 170 488 707 2300 4840
2024-06-14 07:30 5.94 94 20900 (1970) 13 (1925) 907 16 24 38 44 170 488 707 2300 4840
2024-06-14 07:00 5.95 96 20900 (1970) 13 (1925) 907 16 24 38 44 170 488 707 2300 4840
2024-06-14 06:30 5.95 96 20900 (1970) 13 (1925) 907 16 24 38 44 170 488 707 2300 4840
2024-06-14 06:00 5.95 96 20900 (1970) 13 (1925) 907 16 24 38 44 170 488 707 2300 4840
2024-06-14 05:30 5.91 88 20900 (1970) 13 (1925) 907 16 24 38 44 170 488 707 2300 4840
2024-06-14 05:00 5.94 94 20900 (1970) 13 (1925) 907 16 24 38 44 170 488 707 2300 4840
2024-06-14 04:30 5.95 96 20900 (1970) 13 (1925) 907 16 24 38 44 170 488 707 2300 4840
2024-06-14 04:00 5.92 90 20900 (1970) 13 (1925) 907 16 24 38 44 170 488 707 2300 4840
2024-06-14 03:30 5.97 100 20900 (1970) 13 (1925) 907 16 24 38 44 170 488 707 2300 4840
2024-06-14 03:00 5.97 100 20900 (1970) 13 (1925) 907 16 24 38 44 170 488 707 2300 4840
2024-06-14 02:30 5.97 100 20900 (1970) 13 (1925) 907 16 24 38 44 170 488 707 2300 4840
2024-06-14 02:00 5.96 98 20900 (1970) 13 (1925) 907 16 24 38 44 170 488 707 2300 4840
2024-06-14 01:30 5.97 100 20900 (1970) 13 (1925) 907 16 24 38 44 170 488 707 2300 4840
2024-06-14 01:00 5.97 100 20900 (1970) 13 (1925) 907 16 24 38 44 170 488 707 2300 4840
2024-06-14 00:30 5.94 94 20900 (1970) 13 (1925) 907 16 24 38 44 170 488 707 2300 4840
2024-06-14 00:00 5.98 102 20900 (1970) 13 (1925) 907 16 24 38 44 170 488 707 2300 4840
2024-06-13 23:30 5.96 98 20900 (1970) 13 (1925) 907 16 24 38 44 170 488 707 2300 4840
2024-06-13 23:00 5.98 102 20900 (1970) 13 (1925) 907 16 24 38 44 170 488 707 2300 4840
2024-06-13 22:30 5.97 100 24700 (1970) 11 (1925) 1230 17 26 41 46 187 542 647 1340 7980
2024-06-13 22:00 5.98 102 24700 (1970) 11 (1925) 1230 17 26 41 46 187 542 647 1340 7980
2024-06-13 21:30 5.98 102 24700 (1970) 11 (1925) 1230 17 26 41 46 187 542 647 1340 7980
2024-06-13 21:00 5.98 102 24700 (1970) 11 (1925) 1230 17 26 41 46 187 542 647 1340 7980
2024-06-13 20:30 5.99 104 24700 (1970) 11 (1925) 1230 17 26 41 46 187 542 647 1340 7980
2024-06-13 20:00 5.99 104 24700 (1970) 11 (1925) 1230 17 26 41 46 187 542 647 1340 7980
2024-06-13 19:30 5.99 104 24700 (1970) 11 (1925) 1230 17 26 41 46 187 542 647 1340 7980
2024-06-13 19:00 5.99 104 24700 (1970) 11 (1925) 1230 17 26 41 46 187 542 647 1340 7980
2024-06-13 18:30 5.99 104 24700 (1970) 11 (1925) 1230 17 26 41 46 187 542 647 1340 7980
2024-06-13 18:00 5.99 104 24700 (1970) 11 (1925) 1230 17 26 41 46 187 542 647 1340 7980
2024-06-13 17:30 5.99 104 24700 (1970) 11 (1925) 1230 17 26 41 46 187 542 647 1340 7980
2024-06-13 17:00 6.00 106 24700 (1970) 11 (1925) 1230 17 26 41 46 187 542 647 1340 7980
2024-06-13 16:30 5.96 98 24700 (1970) 11 (1925) 1230 17 26 41 46 187 542 647 1340 7980
2024-06-13 16:00 6.01 108 24700 (1970) 11 (1925) 1230 17 26 41 46 187 542 647 1340 7980
2024-06-13 15:30 6.01 108 24700 (1970) 11 (1925) 1230 17 26 41 46 187 542 647 1340 7980
2024-06-13 15:00 5.96 98 24700 (1970) 11 (1925) 1230 17 26 41 46 187 542 647 1340 7980
2024-06-13 14:30 5.97 100 24700 (1970) 11 (1925) 1230 17 26 41 46 187 542 647 1340 7980
2024-06-13 14:00 6.00 106 24700 (1970) 11 (1925) 1230 17 26 41 46 187 542 647 1340 7980
2024-06-13 13:30 5.98 102 24700 (1970) 11 (1925) 1230 17 26 41 46 187 542 647 1340 7980
2024-06-13 13:00 5.96 98 24700 (1970) 11 (1925) 1230 17 26 41 46 187 542 647 1340 7980
2024-06-13 12:30 6.02 110 24700 (1970) 11 (1925) 1230 17 26 41 46 187 542 647 1340 7980
2024-06-13 12:00 5.98 102 24700 (1970) 11 (1925) 1230 17 26 41 46 187 542 647 1340 7980
2024-06-13 11:30 6.02 110 24700 (1970) 11 (1925) 1230 17 26 41 46 187 542 647 1340 7980
2024-06-13 11:00 6.02 110 24700 (1970) 11 (1925) 1230 17 26 41 46 187 542 647 1340 7980
2024-06-13 10:30 5.97 100 24700 (1970) 11 (1925) 1230 17 26 41 46 187 542 647 1340 7980
2024-06-13 10:00 6.03 112 24700 (1970) 11 (1925) 1230 17 26 41 46 187 542 647 1340 7980
2024-06-13 09:30 6.03 112 24700 (1970) 11 (1925) 1230 17 26 41 46 187 542 647 1340 7980
2024-06-13 09:00 6.03 112 24700 (1970) 11 (1925) 1230 17 26 41 46 187 542 647 1340 7980
2024-06-13 08:30 6.04 114 24700 (1970) 11 (1925) 1230 17 26 41 46 187 542 647 1340 7980
2024-06-13 08:00 6.04 114 24700 (1970) 11 (1925) 1230 17 26 41 46 187 542 647 1340 7980
2024-06-13 07:30 6.04 114 24700 (1970) 11 (1925) 1230 17 26 41 46 187 542 647 1340 7980
2024-06-13 07:00 6.04 114 24700 (1970) 11 (1925) 1230 17 26 41 46 187 542 647 1340 7980
2024-06-13 06:30 6.05 117 24700 (1970) 11 (1925) 1230 17 26 41 46 187 542 647 1340 7980
2024-06-13 06:00 6.05 117 24700 (1970) 11 (1925) 1230 17 26 41 46 187 542 647 1340 7980
2024-06-13 05:30 6.05 117 24700 (1970) 11 (1925) 1230 17 26 41 46 187 542 647 1340 7980
2024-06-13 05:00 6.05 117 24700 (1970) 11 (1925) 1230 17 26 41 46 187 542 647 1340 7980
2024-06-13 04:30 6.06 119 24700 (1970) 11 (1925) 1230 17 26 41 46 187 542 647 1340 7980
2024-06-13 04:00 6.06 119 24700 (1970) 11 (1925) 1230 17 26 41 46 187 542 647 1340 7980
2024-06-13 03:30 6.06 119 24700 (1970) 11 (1925) 1230 17 26 41 46 187 542 647 1340 7980
2024-06-13 03:00 6.06 119 24700 (1970) 11 (1925) 1230 17 26 41 46 187 542 647 1340 7980
2024-06-13 02:30 6.06 119 24700 (1970) 11 (1925) 1230 17 26 41 46 187 542 647 1340 7980
2024-06-13 02:00 6.07 121 24700 (1970) 11 (1925) 1230 17 26 41 46 187 542 647 1340 7980
2024-06-13 01:30 6.07 121 24700 (1970) 11 (1925) 1230 17 26 41 46 187 542 647 1340 7980
2024-06-13 01:00 6.07 121 24700 (1970) 11 (1925) 1230 17 26 41 46 187 542 647 1340 7980
2024-06-13 00:30 6.07 121 24700 (1970) 11 (1925) 1230 17 26 41 46 187 542 647 1340 7980
2024-06-13 00:00 6.07 121 24700 (1970) 11 (1925) 1230 17 26 41 46 187 542 647 1340 7980
2024-06-12 23:30 6.08 123 24700 (1970) 11 (1925) 1230 17 26 41 46 187 542 647 1340 7980
2024-06-12 23:00 6.08 123 24700 (1970) 11 (1925) 1230 17 26 41 46 187 542 647 1340 7980
2024-06-12 22:30 6.08 123 12500 (2002) 9 (1925) 833 20 27 38 49 212 713 919 2560 4310
2024-06-12 22:00 6.08 123 12500 (2002) 9 (1925) 833 20 27 38 49 212 713 919 2560 4310
2024-06-12 21:30 6.08 123 12500 (2002) 9 (1925) 833 20 27 38 49 212 713 919 2560 4310
2024-06-12 21:00 6.08 123 12500 (2002) 9 (1925) 833 20 27 38 49 212 713 919 2560 4310
2024-06-12 20:30 6.09 126 12500 (2002) 9 (1925) 833 20 27 38 49 212 713 919 2560 4310
2024-06-12 20:00 6.09 126 12500 (2002) 9 (1925) 833 20 27 38 49 212 713 919 2560 4310
2024-06-12 19:30 6.09 126 12500 (2002) 9 (1925) 833 20 27 38 49 212 713 919 2560 4310
2024-06-12 19:00 6.09 126 12500 (2002) 9 (1925) 833 20 27 38 49 212 713 919 2560 4310
2024-06-12 18:30 6.10 128 12500 (2002) 9 (1925) 833 20 27 38 49 212 713 919 2560 4310
2024-06-12 18:00 6.10 128 12500 (2002) 9 (1925) 833 20 27 38 49 212 713 919 2560 4310
2024-06-12 17:30 6.10 128 12500 (2002) 9 (1925) 833 20 27 38 49 212 713 919 2560 4310
2024-06-12 17:00 6.08 123 12500 (2002) 9 (1925) 833 20 27 38 49 212 713 919 2560 4310
2024-06-12 16:30 6.11 131 12500 (2002) 9 (1925) 833 20 27 38 49 212 713 919 2560 4310
2024-06-12 16:00 6.11 131 12500 (2002) 9 (1925) 833 20 27 38 49 212 713 919 2560 4310
2024-06-12 15:30 6.06 119 12500 (2002) 9 (1925) 833 20 27 38 49 212 713 919 2560 4310
2024-06-12 15:00 6.12 133 12500 (2002) 9 (1925) 833 20 27 38 49 212 713 919 2560 4310
2024-06-12 14:30 6.12 133 12500 (2002) 9 (1925) 833 20 27 38 49 212 713 919 2560 4310
2024-06-12 14:00 6.09 126 12500 (2002) 9 (1925) 833 20 27 38 49 212 713 919 2560 4310
2024-06-12 13:30 6.12 133 12500 (2002) 9 (1925) 833 20 27 38 49 212 713 919 2560 4310
2024-06-12 13:00 6.13 136 12500 (2002) 9 (1925) 833 20 27 38 49 212 713 919 2560 4310
2024-06-12 12:30 6.13 136 12500 (2002) 9 (1925) 833 20 27 38 49 212 713 919 2560 4310
2024-06-12 12:00 6.14 138 12500 (2002) 9 (1925) 833 20 27 38 49 212 713 919 2560 4310
2024-06-12 11:30 6.14 138 12500 (2002) 9 (1925) 833 20 27 38 49 212 713 919 2560 4310
2024-06-12 11:00 6.14 138 12500 (2002) 9 (1925) 833 20 27 38 49 212 713 919 2560 4310
2024-06-12 10:30 6.13 136 12500 (2002) 9 (1925) 833 20 27 38 49 212 713 919 2560 4310
2024-06-12 10:00 6.14 138 12500 (2002) 9 (1925) 833 20 27 38 49 212 713 919 2560 4310
2024-06-12 09:30 6.15 141 12500 (2002) 9 (1925) 833 20 27 38 49 212 713 919 2560 4310
2024-06-12 09:00 6.15 141 12500 (2002) 9 (1925) 833 20 27 38 49 212 713 919 2560 4310
2024-06-12 08:30 6.15 141 12500 (2002) 9 (1925) 833 20 27 38 49 212 713 919 2560 4310
2024-06-12 08:00 6.16 143 12500 (2002) 9 (1925) 833 20 27 38 49 212 713 919 2560 4310
2024-06-12 07:30 6.16 143 12500 (2002) 9 (1925) 833 20 27 38 49 212 713 919 2560 4310
2024-06-12 07:00 6.17 146 12500 (2002) 9 (1925) 833 20 27 38 49 212 713 919 2560 4310
2024-06-12 06:30 6.17 168 12500 (2002) 9 (1925) 833 20 27 38 49 212 713 919 2560 4310
2024-06-12 06:00 6.17 168 12500 (2002) 9 (1925) 833 20 27 38 49 212 713 919 2560 4310
2024-06-12 05:30 6.18 171 12500 (2002) 9 (1925) 833 20 27 38 49 212 713 919 2560 4310
2024-06-12 05:00 6.18 171 12500 (2002) 9 (1925) 833 20 27 38 49 212 713 919 2560 4310
2024-06-12 04:30 6.18 171 12500 (2002) 9 (1925) 833 20 27 38 49 212 713 919 2560 4310
2024-06-12 04:00 6.19 174 12500 (2002) 9 (1925) 833 20 27 38 49 212 713 919 2560 4310
2024-06-12 03:30 6.19 174 12500 (2002) 9 (1925) 833 20 27 38 49 212 713 919 2560 4310
2024-06-12 03:00 6.19 174 12500 (2002) 9 (1925) 833 20 27 38 49 212 713 919 2560 4310
2024-06-12 02:30 6.19 174 12500 (2002) 9 (1925) 833 20 27 38 49 212 713 919 2560 4310
2024-06-12 02:00 6.20 177 12500 (2002) 9 (1925) 833 20 27 38 49 212 713 919 2560 4310
2024-06-12 01:30 6.20 177 12500 (2002) 9 (1925) 833 20 27 38 49 212 713 919 2560 4310
2024-06-12 01:00 6.20 177 12500 (2002) 9 (1925) 833 20 27 38 49 212 713 919 2560 4310
2024-06-12 00:30 6.21 180 12500 (2002) 9 (1925) 833 20 27 38 49 212 713 919 2560 4310
2024-06-12 00:00 6.21 180 12500 (2002) 9 (1925) 833 20 27 38 49 212 713 919 2560 4310
2024-06-11 23:30 6.21 180 12500 (2002) 9 (1925) 833 20 27 38 49 212 713 919 2560 4310
2024-06-11 23:00 6.21 180 12500 (2002) 9 (1925) 833 20 27 38 49 212 713 919 2560 4310
2024-06-11 22:30 6.22 183 6040 (1938) 10 (1925) 706 20 27 45 56 170 717 888 2570 3410
2024-06-11 22:00 6.22 183 6040 (1938) 10 (1925) 706 20 27 45 56 170 717 888 2570 3410
2024-06-11 21:30 6.22 183 6040 (1938) 10 (1925) 706 20 27 45 56 170 717 888 2570 3410
2024-06-11 21:00 6.23 186 6040 (1938) 10 (1925) 706 20 27 45 56 170 717 888 2570 3410
2024-06-11 20:30 6.23 186 6040 (1938) 10 (1925) 706 20 27 45 56 170 717 888 2570 3410
2024-06-11 20:00 6.23 186 6040 (1938) 10 (1925) 706 20 27 45 56 170 717 888 2570 3410
2024-06-11 19:30 6.24 189 6040 (1938) 10 (1925) 706 20 27 45 56 170 717 888 2570 3410
2024-06-11 19:00 6.24 189 6040 (1938) 10 (1925) 706 20 27 45 56 170 717 888 2570 3410
2024-06-11 18:30 6.25 192 6040 (1938) 10 (1925) 706 20 27 45 56 170 717 888 2570 3410
2024-06-11 18:00 6.25 192 6040 (1938) 10 (1925) 706 20 27 45 56 170 717 888 2570 3410
2024-06-11 17:30 6.26 195 6040 (1938) 10 (1925) 706 20 27 45 56 170 717 888 2570 3410
2024-06-11 17:00 6.26 195 6040 (1938) 10 (1925) 706 20 27 45 56 170 717 888 2570 3410
2024-06-11 16:30 6.25 192 6040 (1938) 10 (1925) 706 20 27 45 56 170 717 888 2570 3410
2024-06-11 16:00 6.24 189 6040 (1938) 10 (1925) 706 20 27 45 56 170 717 888 2570 3410
2024-06-11 15:30 6.27 199 6040 (1938) 10 (1925) 706 20 27 45 56 170 717 888 2570 3410
2024-06-11 15:00 6.28 202 6040 (1938) 10 (1925) 706 20 27 45 56 170 717 888 2570 3410
2024-06-11 14:30 6.28 202 6040 (1938) 10 (1925) 706 20 27 45 56 170 717 888 2570 3410
2024-06-11 14:00 6.29 205 6040 (1938) 10 (1925) 706 20 27 45 56 170 717 888 2570 3410
2024-06-11 13:30 6.29 205 6040 (1938) 10 (1925) 706 20 27 45 56 170 717 888 2570 3410
2024-06-11 13:00 6.29 205 6040 (1938) 10 (1925) 706 20 27 45 56 170 717 888 2570 3410
2024-06-11 12:30 6.30 208 6040 (1938) 10 (1925) 706 20 27 45 56 170 717 888 2570 3410
2024-06-11 12:00 6.29 205 6040 (1938) 10 (1925) 706 20 27 45 56 170 717 888 2570 3410
2024-06-11 11:30 6.28 202 6040 (1938) 10 (1925) 706 20 27 45 56 170 717 888 2570 3410
2024-06-11 11:00 6.31 212 6040 (1938) 10 (1925) 706 20 27 45 56 170 717 888 2570 3410
2024-06-11 10:30 6.30 208 6040 (1938) 10 (1925) 706 20 27 45 56 170 717 888 2570 3410
2024-06-11 10:00 6.31 212 6040 (1938) 10 (1925) 706 20 27 45 56 170 717 888 2570 3410
2024-06-11 09:30 6.32 215 6040 (1938) 10 (1925) 706 20 27 45 56 170 717 888 2570 3410
2024-06-11 09:00 6.32 215 6040 (1938) 10 (1925) 706 20 27 45 56 170 717 888 2570 3410
2024-06-11 08:30 6.33 219 6040 (1938) 10 (1925) 706 20 27 45 56 170 717 888 2570 3410
2024-06-11 08:00 6.33 219 6040 (1938) 10 (1925) 706 20 27 45 56 170 717 888 2570 3410
2024-06-11 07:30 6.34 222 6040 (1938) 10 (1925) 706 20 27 45 56 170 717 888 2570 3410
2024-06-11 07:00 6.35 226 6040 (1938) 10 (1925) 706 20 27 45 56 170 717 888 2570 3410
2024-06-11 06:30 6.35 226 6040 (1938) 10 (1925) 706 20 27 45 56 170 717 888 2570 3410
2024-06-11 06:00 6.36 229 6040 (1938) 10 (1925) 706 20 27 45 56 170 717 888 2570 3410
2024-06-11 05:30 6.36 229 6040 (1938) 10 (1925) 706 20 27 45 56 170 717 888 2570 3410
2024-06-11 05:00 6.37 233 6040 (1938) 10 (1925) 706 20 27 45 56 170 717 888 2570 3410
2024-06-11 04:30 6.37 233 6040 (1938) 10 (1925) 706 20 27 45 56 170 717 888 2570 3410
2024-06-11 04:00 6.37 233 6040 (1938) 10 (1925) 706 20 27 45 56 170 717 888 2570 3410
2024-06-11 03:30 6.38 237 6040 (1938) 10 (1925) 706 20 27 45 56 170 717 888 2570 3410
2024-06-11 03:00 6.39 240 6040 (1938) 10 (1925) 706 20 27 45 56 170 717 888 2570 3410
2024-06-11 02:30 6.39 240 6040 (1938) 10 (1925) 706 20 27 45 56 170 717 888 2570 3410
2024-06-11 02:00 6.40 244 6040 (1938) 10 (1925) 706 20 27 45 56 170 717 888 2570 3410
2024-06-11 01:30 6.40 244 6040 (1938) 10 (1925) 706 20 27 45 56 170 717 888 2570 3410
2024-06-11 01:00 6.40 244 6040 (1938) 10 (1925) 706 20 27 45 56 170 717 888 2570 3410
2024-06-11 00:30 6.41 248 6040 (1938) 10 (1925) 706 20 27 45 56 170 717 888 2570 3410
2024-06-11 00:00 6.41 248 6040 (1938) 10 (1925) 706 20 27 45 56 170 717 888 2570 3410
2024-06-10 23:30 6.42 251 6040 (1938) 10 (1925) 706 20 27 45 56 170 717 888 2570 3410
2024-06-10 23:00 6.43 255 6040 (1938) 10 (1925) 706 20 27 45 56 170 717 888 2570 3410
2024-06-10 22:30 6.43 255 11700 (1982) 10 (1925) 733 20 28 36 49 103 587 884 2230 3470
2024-06-10 22:00 6.44 259 11700 (1982) 10 (1925) 733 20 28 36 49 103 587 884 2230 3470
2024-06-10 21:30 6.44 259 11700 (1982) 10 (1925) 733 20 28 36 49 103 587 884 2230 3470
2024-06-10 21:00 6.45 263 11700 (1982) 10 (1925) 733 20 28 36 49 103 587 884 2230 3470
2024-06-10 20:30 6.45 263 11700 (1982) 10 (1925) 733 20 28 36 49 103 587 884 2230 3470
2024-06-10 20:00 6.46 267 11700 (1982) 10 (1925) 733 20 28 36 49 103 587 884 2230 3470
2024-06-10 19:30 6.47 270 11700 (1982) 10 (1925) 733 20 28 36 49 103 587 884 2230 3470
2024-06-10 19:00 6.47 270 11700 (1982) 10 (1925) 733 20 28 36 49 103 587 884 2230 3470
2024-06-10 18:30 6.48 273 11700 (1982) 10 (1925) 733 20 28 36 49 103 587 884 2230 3470
2024-06-10 18:00 6.44 259 11700 (1982) 10 (1925) 733 20 28 36 49 103 587 884 2230 3470
2024-06-10 17:30 6.50 280 11700 (1982) 10 (1925) 733 20 28 36 49 103 587 884 2230 3470
2024-06-10 17:00 6.50 280 11700 (1982) 10 (1925) 733 20 28 36 49 103 587 884 2230 3470
2024-06-10 16:30 6.51 283 11700 (1982) 10 (1925) 733 20 28 36 49 103 587 884 2230 3470
2024-06-10 16:00 6.51 283 11700 (1982) 10 (1925) 733 20 28 36 49 103 587 884 2230 3470
2024-06-10 15:30 6.52 286 11700 (1982) 10 (1925) 733 20 28 36 49 103 587 884 2230 3470
2024-06-10 15:00 6.53 289 11700 (1982) 10 (1925) 733 20 28 36 49 103 587 884 2230 3470
2024-06-10 14:30 6.53 289 11700 (1982) 10 (1925) 733 20 28 36 49 103 587 884 2230 3470
2024-06-10 14:00 6.54 292 11700 (1982) 10 (1925) 733 20 28 36 49 103 587 884 2230 3470
2024-06-10 13:30 6.54 292 11700 (1982) 10 (1925) 733 20 28 36 49 103 587 884 2230 3470
2024-06-10 13:00 6.55 296 11700 (1982) 10 (1925) 733 20 28 36 49 103 587 884 2230 3470
2024-06-10 12:30 6.56 299 11700 (1982) 10 (1925) 733 20 28 36 49 103 587 884 2230 3470
2024-06-10 12:00 6.52 286 11700 (1982) 10 (1925) 733 20 28 36 49 103 587 884 2230 3470
2024-06-10 11:30 6.58 305 11700 (1982) 10 (1925) 733 20 28 36 49 103 587 884 2230 3470
2024-06-10 11:00 6.58 305 11700 (1982) 10 (1925) 733 20 28 36 49 103 587 884 2230 3470
2024-06-10 10:30 6.59 309 11700 (1982) 10 (1925) 733 20 28 36 49 103 587 884 2230 3470
2024-06-10 10:00 6.59 309 11700 (1982) 10 (1925) 733 20 28 36 49 103 587 884 2230 3470
2024-06-10 09:30 6.60 312 11700 (1982) 10 (1925) 733 20 28 36 49 103 587 884 2230 3470
2024-06-10 09:00 6.61 315 11700 (1982) 10 (1925) 733 20 28 36 49 103 587 884 2230 3470
2024-06-10 08:30 6.61 315 11700 (1982) 10 (1925) 733 20 28 36 49 103 587 884 2230 3470
2024-06-10 08:00 6.59 309 11700 (1982) 10 (1925) 733 20 28 36 49 103 587 884 2230 3470
2024-06-10 07:30 6.59 309 11700 (1982) 10 (1925) 733 20 28 36 49 103 587 884 2230 3470
2024-06-10 07:00 6.64 326 11700 (1982) 10 (1925) 733 20 28 36 49 103 587 884 2230 3470
2024-06-10 06:30 6.66 333 11700 (1982) 10 (1925) 733 20 28 36 49 103 587 884 2230 3470
2024-06-10 06:00 6.66 333 11700 (1982) 10 (1925) 733 20 28 36 49 103 587 884 2230 3470
2024-06-10 05:30 6.67 336 11700 (1982) 10 (1925) 733 20 28 36 49 103 587 884 2230 3470
2024-06-10 05:00 6.68 340 11700 (1982) 10 (1925) 733 20 28 36 49 103 587 884 2230 3470
2024-06-10 04:30 6.69 343 11700 (1982) 10 (1925) 733 20 28 36 49 103 587 884 2230 3470
2024-06-10 04:00 6.70 347 11700 (1982) 10 (1925) 733 20 28 36 49 103 587 884 2230 3470
2024-06-10 03:30 6.70 347 11700 (1982) 10 (1925) 733 20 28 36 49 103 587 884 2230 3470
2024-06-10 03:00 6.71 350 11700 (1982) 10 (1925) 733 20 28 36 49 103 587 884 2230 3470
2024-06-10 02:30 6.72 354 11700 (1982) 10 (1925) 733 20 28 36 49 103 587 884 2230 3470
2024-06-10 02:00 6.73 358 11700 (1982) 10 (1925) 733 20 28 36 49 103 587 884 2230 3470
2024-06-10 01:30 6.73 358 11700 (1982) 10 (1925) 733 20 28 36 49 103 587 884 2230 3470
2024-06-10 01:00 6.74 361 11700 (1982) 10 (1925) 733 20 28 36 49 103 587 884 2230 3470
2024-06-10 00:30 6.75 365 11700 (1982) 10 (1925) 733 20 28 36 49 103 587 884 2230 3470
2024-06-10 00:00 6.75 365 11700 (1982) 10 (1925) 733 20 28 36 49 103 587 884 2230 3470
2024-06-09 23:30 6.76 369 11700 (1982) 10 (1925) 733 20 28 36 49 103 587 884 2230 3470
2024-06-09 23:00 6.76 369 11700 (1982) 10 (1925) 733 20 28 36 49 103 587 884 2230 3470
2024-06-09 22:30 6.76 369 13500 (1982) 3 (1934) 898 17 29 36 53 107 408 774 2940 5720
2024-06-09 22:00 6.77 372 13500 (1982) 3 (1934) 898 17 29 36 53 107 408 774 2940 5720
2024-06-09 21:30 6.77 372 13500 (1982) 3 (1934) 898 17 29 36 53 107 408 774 2940 5720
2024-06-09 21:00 6.77 372 13500 (1982) 3 (1934) 898 17 29 36 53 107 408 774 2940 5720
2024-06-09 20:30 6.77 372 13500 (1982) 3 (1934) 898 17 29 36 53 107 408 774 2940 5720
2024-06-09 20:00 6.76 369 13500 (1982) 3 (1934) 898 17 29 36 53 107 408 774 2940 5720
2024-06-09 19:30 6.76 369 13500 (1982) 3 (1934) 898 17 29 36 53 107 408 774 2940 5720
2024-06-09 19:00 6.76 369 13500 (1982) 3 (1934) 898 17 29 36 53 107 408 774 2940 5720
2024-06-09 18:30 6.75 365 13500 (1982) 3 (1934) 898 17 29 36 53 107 408 774 2940 5720
2024-06-09 18:00 6.75 365 13500 (1982) 3 (1934) 898 17 29 36 53 107 408 774 2940 5720
2024-06-09 17:30 6.74 361 13500 (1982) 3 (1934) 898 17 29 36 53 107 408 774 2940 5720
2024-06-09 17:00 6.73 358 13500 (1982) 3 (1934) 898 17 29 36 53 107 408 774 2940 5720
2024-06-09 16:30 354 13500 (1982) 3 (1934) 898 17 29 36 53 107 408 774 2940 5720
2024-06-09 16:00 6.71 350 13500 (1982) 3 (1934) 898 17 29 36 53 107 408 774 2940 5720
2024-06-09 15:30 6.70 347 13500 (1982) 3 (1934) 898 17 29 36 53 107 408 774 2940 5720
2024-06-09 15:00 6.66 333 13500 (1982) 3 (1934) 898 17 29 36 53 107 408 774 2940 5720
2024-06-09 14:30 6.68 340 13500 (1982) 3 (1934) 898 17 29 36 53 107 408 774 2940 5720
2024-06-09 14:00 6.67 336 13500 (1982) 3 (1934) 898 17 29 36 53 107 408 774 2940 5720
2024-06-09 13:30 6.67 336 13500 (1982) 3 (1934) 898 17 29 36 53 107 408 774 2940 5720
2024-06-09 13:00 6.65 329 13500 (1982) 3 (1934) 898 17 29 36 53 107 408 774 2940 5720
2024-06-09 12:30 6.64 326 13500 (1982) 3 (1934) 898 17 29 36 53 107 408 774 2940 5720
2024-06-09 12:00 6.64 326 13500 (1982) 3 (1934) 898 17 29 36 53 107 408 774 2940 5720
2024-06-09 11:30 6.63 322 13500 (1982) 3 (1934) 898 17 29 36 53 107 408 774 2940 5720
2024-06-09 11:00 6.61 315 13500 (1982) 3 (1934) 898 17 29 36 53 107 408 774 2940 5720
2024-06-09 10:30 6.57 302 13500 (1982) 3 (1934) 898 17 29 36 53 107 408 774 2940 5720
2024-06-09 10:00 6.62 319 13500 (1982) 3 (1934) 898 17 29 36 53 107 408 774 2940 5720
2024-06-09 09:30 6.62 319 13500 (1982) 3 (1934) 898 17 29 36 53 107 408 774 2940 5720
2024-06-09 09:00 6.61 315 13500 (1982) 3 (1934) 898 17 29 36 53 107 408 774 2940 5720
2024-06-09 08:30 6.61 315 13500 (1982) 3 (1934) 898 17 29 36 53 107 408 774 2940 5720
2024-06-09 08:00 6.61 315 13500 (1982) 3 (1934) 898 17 29 36 53 107 408 774 2940 5720
2024-06-09 07:30 6.61 315 13500 (1982) 3 (1934) 898 17 29 36 53 107 408 774 2940 5720
2024-06-09 07:00 6.61 315 13500 (1982) 3 (1934) 898 17 29 36 53 107 408 774 2940 5720
2024-06-09 06:30 6.61 315 13500 (1982) 3 (1934) 898 17 29 36 53 107 408 774 2940 5720
2024-06-09 06:00 6.62 319 13500 (1982) 3 (1934) 898 17 29 36 53 107 408 774 2940 5720
2024-06-09 05:30 6.62 319 13500 (1982) 3 (1934) 898 17 29 36 53 107 408 774 2940 5720
2024-06-09 05:00 6.62 319 13500 (1982) 3 (1934) 898 17 29 36 53 107 408 774 2940 5720
2024-06-09 04:30 6.62 319 13500 (1982) 3 (1934) 898 17 29 36 53 107 408 774 2940 5720
2024-06-09 04:00 6.63 322 13500 (1982) 3 (1934) 898 17 29 36 53 107 408 774 2940 5720
2024-06-09 03:30 6.63 322 13500 (1982) 3 (1934) 898 17 29 36 53 107 408 774 2940 5720
2024-06-09 03:00 6.63 322 13500 (1982) 3 (1934) 898 17 29 36 53 107 408 774 2940 5720
2024-06-09 02:30 6.63 322 13500 (1982) 3 (1934) 898 17 29 36 53 107 408 774 2940 5720
2024-06-09 02:00 6.59 309 13500 (1982) 3 (1934) 898 17 29 36 53 107 408 774 2940 5720
2024-06-09 01:30 6.64 326 13500 (1982) 3 (1934) 898 17 29 36 53 107 408 774 2940 5720
2024-06-09 01:00 6.62 319 13500 (1982) 3 (1934) 898 17 29 36 53 107 408 774 2940 5720
2024-06-09 00:30 6.65 329 13500 (1982) 3 (1934) 898 17 29 36 53 107 408 774 2940 5720
2024-06-09 00:00 6.65 329 13500 (1982) 3 (1934) 898 17 29 36 53 107 408 774 2940 5720
2024-06-08 23:30 6.65 329 13500 (1982) 3 (1934) 898 17 29 36 53 107 408 774 2940 5720
2024-06-08 23:00 6.65 329 13500 (1982) 3 (1934) 898 17 29 36 53 107 408 774 2940 5720
2024-06-08 22:30 6.66 333 22400 (1990) 2 (1934) 946 13 28 40 45 118 384 677 2240 5130
2024-06-08 22:00 6.66 333 22400 (1990) 2 (1934) 946 13 28 40 45 118 384 677 2240 5130
2024-06-08 21:30 6.66 333 22400 (1990) 2 (1934) 946 13 28 40 45 118 384 677 2240 5130
2024-06-08 21:00 6.67 336 22400 (1990) 2 (1934) 946 13 28 40 45 118 384 677 2240 5130
2024-06-08 20:30 6.67 336 22400 (1990) 2 (1934) 946 13 28 40 45 118 384 677 2240 5130
2024-06-08 20:00 6.67 336 22400 (1990) 2 (1934) 946 13 28 40 45 118 384 677 2240 5130
2024-06-08 19:30 6.68 340 22400 (1990) 2 (1934) 946 13 28 40 45 118 384 677 2240 5130
2024-06-08 19:00 6.68 340 22400 (1990) 2 (1934) 946 13 28 40 45 118 384 677 2240 5130
2024-06-08 18:30 6.69 343 22400 (1990) 2 (1934) 946 13 28 40 45 118 384 677 2240 5130
2024-06-08 18:00 6.70 347 22400 (1990) 2 (1934) 946 13 28 40 45 118 384 677 2240 5130
2024-06-08 17:30 6.70 347 22400 (1990) 2 (1934) 946 13 28 40 45 118 384 677 2240 5130
2024-06-08 17:00 6.71 350 22400 (1990) 2 (1934) 946 13 28 40 45 118 384 677 2240 5130
2024-06-08 16:30 6.72 354 22400 (1990) 2 (1934) 946 13 28 40 45 118 384 677 2240 5130
2024-06-08 16:00 6.72 354 22400 (1990) 2 (1934) 946 13 28 40 45 118 384 677 2240 5130
2024-06-08 15:30 6.73 358 22400 (1990) 2 (1934) 946 13 28 40 45 118 384 677 2240 5130
2024-06-08 15:00 6.74 361 22400 (1990) 2 (1934) 946 13 28 40 45 118 384 677 2240 5130
2024-06-08 14:30 6.75 365 22400 (1990) 2 (1934) 946 13 28 40 45 118 384 677 2240 5130
2024-06-08 14:00 6.76 369 22400 (1990) 2 (1934) 946 13 28 40 45 118 384 677 2240 5130
2024-06-08 13:30 6.76 369 22400 (1990) 2 (1934) 946 13 28 40 45 118 384 677 2240 5130
2024-06-08 13:00 6.77 372 22400 (1990) 2 (1934) 946 13 28 40 45 118 384 677 2240 5130
2024-06-08 12:30 6.78 376 22400 (1990) 2 (1934) 946 13 28 40 45 118 384 677 2240 5130
2024-06-08 12:00 6.78 376 22400 (1990) 2 (1934) 946 13 28 40 45 118 384 677 2240 5130
2024-06-08 11:30 6.78 376 22400 (1990) 2 (1934) 946 13 28 40 45 118 384 677 2240 5130
2024-06-08 11:00 6.79 380 22400 (1990) 2 (1934) 946 13 28 40 45 118 384 677 2240 5130
2024-06-08 10:30 6.80 384 22400 (1990) 2 (1934) 946 13 28 40 45 118 384 677 2240 5130
2024-06-08 10:00 6.78 376 22400 (1990) 2 (1934) 946 13 28 40 45 118 384 677 2240 5130
2024-06-08 09:30 6.81 387 22400 (1990) 2 (1934) 946 13 28 40 45 118 384 677 2240 5130
2024-06-08 09:00 6.82 391 22400 (1990) 2 (1934) 946 13 28 40 45 118 384 677 2240 5130
2024-06-08 08:30 6.83 395 22400 (1990) 2 (1934) 946 13 28 40 45 118 384 677 2240 5130
2024-06-08 08:00 6.83 395 22400 (1990) 2 (1934) 946 13 28 40 45 118 384 677 2240 5130
2024-06-08 07:30 6.75 365 22400 (1990) 2 (1934) 946 13 28 40 45 118 384 677 2240 5130
2024-06-08 07:00 6.80 384 22400 (1990) 2 (1934) 946 13 28 40 45 118 384 677 2240 5130
2024-06-08 06:30 6.81 387 22400 (1990) 2 (1934) 946 13 28 40 45 118 384 677 2240 5130
2024-06-08 06:00 6.82 391 22400 (1990) 2 (1934) 946 13 28 40 45 118 384 677 2240 5130
2024-06-08 05:30 6.81 387 22400 (1990) 2 (1934) 946 13 28 40 45 118 384 677 2240 5130
2024-06-08 05:00 6.83 395 22400 (1990) 2 (1934) 946 13 28 40 45 118 384 677 2240 5130
2024-06-08 04:30 6.84 399 22400 (1990) 2 (1934) 946 13 28 40 45 118 384 677 2240 5130
2024-06-08 04:00 6.81 387 22400 (1990) 2 (1934) 946 13 28 40 45 118 384 677 2240 5130
2024-06-08 03:30 6.86 407 22400 (1990) 2 (1934) 946 13 28 40 45 118 384 677 2240 5130
2024-06-08 03:00 6.87 411 22400 (1990) 2 (1934) 946 13 28 40 45 118 384 677 2240 5130
2024-06-08 02:30 6.88 415 22400 (1990) 2 (1934) 946 13 28 40 45 118 384 677 2240 5130
2024-06-08 02:00 6.89 419 22400 (1990) 2 (1934) 946 13 28 40 45 118 384 677 2240 5130
2024-06-08 01:30 6.90 423 22400 (1990) 2 (1934) 946 13 28 40 45 118 384 677 2240 5130
2024-06-08 01:00 6.91 427 22400 (1990) 2 (1934) 946 13 28 40 45 118 384 677 2240 5130
2024-06-08 00:30 6.92 431 22400 (1990) 2 (1934) 946 13 28 40 45 118 384 677 2240 5130
2024-06-08 00:00 6.93 435 22400 (1990) 2 (1934) 946 13 28 40 45 118 384 677 2240 5130
2024-06-07 23:30 6.94 439 22400 (1990) 2 (1934) 946 13 28 40 45 118 384 677 2240 5130
2024-06-07 23:00 6.95 443 22400 (1990) 2 (1934) 946 13 28 40 45 118 384 677 2240 5130
2024-06-07 22:30 6.96 447 15800 (1990) 4 (1934) 686 15 29 41 51 130 368 457 1270 3910
2024-06-07 22:00 6.98 456 15800 (1990) 4 (1934) 686 15 29 41 51 130 368 457 1270 3910
2024-06-07 21:30 6.99 460 15800 (1990) 4 (1934) 686 15 29 41 51 130 368 457 1270 3910
2024-06-07 21:00 7.00 464 15800 (1990) 4 (1934) 686 15 29 41 51 130 368 457 1270 3910
2024-06-07 20:30 7.01 468 15800 (1990) 4 (1934) 686 15 29 41 51 130 368 457 1270 3910
2024-06-07 20:00 7.02 473 15800 (1990) 4 (1934) 686 15 29 41 51 130 368 457 1270 3910
2024-06-07 19:30 7.04 481 15800 (1990) 4 (1934) 686 15 29 41 51 130 368 457 1270 3910
2024-06-07 19:00 7.05 486 15800 (1990) 4 (1934) 686 15 29 41 51 130 368 457 1270 3910
2024-06-07 18:30 7.07 494 15800 (1990) 4 (1934) 686 15 29 41 51 130 368 457 1270 3910
2024-06-07 18:00 7.08 499 15800 (1990) 4 (1934) 686 15 29 41 51 130 368 457 1270 3910
2024-06-07 17:30 7.09 503 15800 (1990) 4 (1934) 686 15 29 41 51 130 368 457 1270 3910
2024-06-07 17:00 7.11 512 15800 (1990) 4 (1934) 686 15 29 41 51 130 368 457 1270 3910
2024-06-07 16:30 7.12 517 15800 (1990) 4 (1934) 686 15 29 41 51 130 368 457 1270 3910
2024-06-07 16:00 7.14 526 15800 (1990) 4 (1934) 686 15 29 41 51 130 368 457 1270 3910
2024-06-07 15:30 7.12 517 15800 (1990) 4 (1934) 686 15 29 41 51 130 368 457 1270 3910
2024-06-07 15:00 7.15 531 15800 (1990) 4 (1934) 686 15 29 41 51 130 368 457 1270 3910
2024-06-07 14:30 7.19 549 15800 (1990) 4 (1934) 686 15 29 41 51 130 368 457 1270 3910
2024-06-07 14:00 7.20 554 15800 (1990) 4 (1934) 686 15 29 41 51 130 368 457 1270 3910
2024-06-07 13:30 7.20 554 15800 (1990) 4 (1934) 686 15 29 41 51 130 368 457 1270 3910
2024-06-07 13:00 7.22 563 15800 (1990) 4 (1934) 686 15 29 41 51 130 368 457 1270 3910
2024-06-07 12:30 7.23 568 15800 (1990) 4 (1934) 686 15 29 41 51 130 368 457 1270 3910
2024-06-07 12:00 7.26 583 15800 (1990) 4 (1934) 686 15 29 41 51 130 368 457 1270 3910
2024-06-07 11:30 7.27 588 15800 (1990) 4 (1934) 686 15 29 41 51 130 368 457 1270 3910
2024-06-07 11:00 7.28 592 15800 (1990) 4 (1934) 686 15 29 41 51 130 368 457 1270 3910
2024-06-07 10:30 7.30 602 15800 (1990) 4 (1934) 686 15 29 41 51 130 368 457 1270 3910
2024-06-07 10:00 7.31 607 15800 (1990) 4 (1934) 686 15 29 41 51 130 368 457 1270 3910
2024-06-07 09:30 7.32 612 15800 (1990) 4 (1934) 686 15 29 41 51 130 368 457 1270 3910
2024-06-07 09:00 7.34 622 15800 (1990) 4 (1934) 686 15 29 41 51 130 368 457 1270 3910
2024-06-07 08:30 7.35 627 15800 (1990) 4 (1934) 686 15 29 41 51 130 368 457 1270 3910
2024-06-07 08:00 7.36 633 15800 (1990) 4 (1934) 686 15 29 41 51 130 368 457 1270 3910
2024-06-07 07:30 7.37 638 15800 (1990) 4 (1934) 686 15 29 41 51 130 368 457 1270 3910
2024-06-07 07:00 7.39 648 15800 (1990) 4 (1934) 686 15 29 41 51 130 368 457 1270 3910
2024-06-07 06:30 7.41 658 15800 (1990) 4 (1934) 686 15 29 41 51 130 368 457 1270 3910
2024-06-07 06:00 7.42 664 15800 (1990) 4 (1934) 686 15 29 41 51 130 368 457 1270 3910
2024-06-07 05:30 7.44 674 15800 (1990) 4 (1934) 686 15 29 41 51 130 368 457 1270 3910
2024-06-07 05:00 7.45 680 15800 (1990) 4 (1934) 686 15 29 41 51 130 368 457 1270 3910
2024-06-07 04:30 7.47 690 15800 (1990) 4 (1934) 686 15 29 41 51 130 368 457 1270 3910
2024-06-07 04:00 7.49 701 15800 (1990) 4 (1934) 686 15 29 41 51 130 368 457 1270 3910
2024-06-07 03:30 7.50 706 15800 (1990) 4 (1934) 686 15 29 41 51 130 368 457 1270 3910
2024-06-07 03:00 7.54 729 15800 (1990) 4 (1934) 686 15 29 41 51 130 368 457 1270 3910
2024-06-07 02:30 7.56 740 15800 (1990) 4 (1934) 686 15 29 41 51 130 368 457 1270 3910
2024-06-07 02:00 7.58 751 15800 (1990) 4 (1934) 686 15 29 41 51 130 368 457 1270 3910
2024-06-07 01:30 7.60 762 15800 (1990) 4 (1934) 686 15 29 41 51 130 368 457 1270 3910
2024-06-07 01:00 7.63 780 15800 (1990) 4 (1934) 686 15 29 41 51 130 368 457 1270 3910
2024-06-07 00:30 7.66 797 15800 (1990) 4 (1934) 686 15 29 41 51 130 368 457 1270 3910
2024-06-07 00:00 7.69 815 15800 (1990) 4 (1934) 686 15 29 41 51 130 368 457 1270 3910
2024-06-06 23:30 7.71 827 15800 (1990) 4 (1934) 686 15 29 41 51 130 368 457 1270 3910
2024-06-06 23:00 7.75 851 15800 (1990) 4 (1934) 686 15 29 41 51 130 368 457 1270 3910

A total of 382 rows are displayed for years 1922 through 2023.